createdAt,value
2023-04-14T00:02:00.782Z,4.03
2023-04-14T00:04:27.783Z,4.50
2023-04-14T00:06:57.181Z,5.75
2023-04-14T00:09:24.313Z,5.18
2023-04-14T00:11:51.624Z,4.40
2023-04-14T00:14:18.314Z,6.68
2023-04-14T00:16:46.411Z,5.10
2023-04-14T00:19:13.126Z,4.47
2023-04-14T00:21:39.961Z,4.88
2023-04-14T00:24:06.679Z,6.63
2023-04-14T00:26:33.432Z,4.68
2023-04-14T00:29:00.326Z,5.97
2023-04-14T00:31:27.336Z,5.38
2023-04-14T00:33:54.012Z,4.90
2023-04-14T00:36:20.710Z,5.45
2023-04-14T00:38:47.381Z,4.45
2023-04-14T00:41:14.072Z,4.93
2023-04-14T00:43:40.853Z,3.30
2023-04-14T00:46:08.013Z,6.57
2023-04-14T00:48:34.755Z,5.88
2023-04-14T00:51:02.144Z,5.63
2023-04-14T00:53:28.786Z,5.13
2023-04-14T00:55:55.690Z,6.22
2023-04-14T00:58:22.488Z,6.15
2023-04-14T01:00:54.005Z,7.05
2023-04-14T01:03:21.185Z,6.80
2023-04-14T01:05:47.986Z,7.68
2023-04-14T01:08:14.672Z,7.10
2023-04-14T01:10:46.352Z,7.97
2023-04-14T01:13:21.227Z,11.60
2023-04-14T01:15:57.924Z,6.32
2023-04-14T01:18:42.881Z,8.70
2023-04-14T01:21:18.802Z,9.00
2023-04-14T01:24:17.722Z,10.43
2023-04-14T01:26:44.428Z,11.25
2023-04-14T01:29:29.777Z,10.35
2023-04-14T01:32:09.836Z,10.65
2023-04-14T01:34:58.473Z,9.30
2023-04-14T01:37:34.136Z,8.23
2023-04-14T01:40:11.459Z,10.10
2023-04-14T01:42:38.512Z,8.23
2023-04-14T01:45:16.564Z,9.77
2023-04-14T01:47:43.264Z,11.65
2023-04-14T01:50:11.079Z,9.90
2023-04-14T01:52:38.165Z,11.60
2023-04-14T01:55:06.764Z,12.18
2023-04-14T01:57:34.155Z,12.05
2023-04-14T02:00:01.151Z,11.70
2023-04-14T02:02:28.130Z,12.25
2023-04-14T02:04:57.513Z,10.35
2023-04-14T02:07:25.128Z,11.52
2023-04-14T02:09:51.850Z,8.60
2023-04-14T02:12:20.045Z,15.15
2023-04-14T02:14:47.120Z,11.45
2023-04-14T02:17:13.805Z,10.02
2023-04-14T02:19:41.367Z,13.32
2023-04-14T02:22:08.017Z,12.45
2023-04-14T02:24:34.747Z,10.93
2023-04-14T02:27:27.521Z,10.68
2023-04-14T02:29:54.238Z,11.15
2023-04-14T02:32:30.409Z,10.68
2023-04-14T02:35:18.992Z,11.88
2023-04-14T02:37:49.409Z,13.00
2023-04-14T02:40:20.739Z,11.73
2023-04-14T02:42:50.261Z,16.65
2023-04-14T02:45:21.735Z,13.60
2023-04-14T02:47:53.708Z,13.18
2023-04-14T02:50:20.680Z,13.57
2023-04-14T02:52:51.474Z,11.65
2023-04-14T02:55:20.217Z,11.48
2023-04-14T02:57:47.474Z,10.05
2023-04-14T03:00:14.560Z,11.23
2023-04-14T03:02:41.263Z,10.38
2023-04-14T03:05:08.545Z,14.45
2023-04-14T03:07:35.347Z,15.52
2023-04-14T03:10:02.060Z,12.88
2023-04-14T03:12:28.761Z,12.52
2023-04-14T03:14:55.457Z,14.60
2023-04-14T03:17:22.301Z,14.07
2023-04-14T03:19:49.763Z,15.65
2023-04-14T03:22:19.782Z,12.38
2023-04-14T03:24:46.676Z,14.60
2023-04-14T03:27:22.962Z,13.45
2023-04-14T03:29:52.170Z,14.82
2023-04-14T03:32:19.660Z,15.05
2023-04-14T03:34:49.013Z,13.50
2023-04-14T03:37:18.910Z,13.13
2023-04-14T03:39:46.037Z,14.43
2023-04-14T03:42:12.904Z,13.82
2023-04-14T03:44:43.145Z,14.02
2023-04-14T03:47:10.721Z,13.13
2023-04-14T03:49:38.763Z,15.57
2023-04-14T03:52:11.036Z,11.55
2023-04-14T03:54:38.872Z,13.33
2023-04-14T03:57:06.556Z,12.77
2023-04-14T03:59:34.337Z,14.52
2023-04-14T04:02:03.114Z,15.05
2023-04-14T04:04:30.888Z,13.00
2023-04-14T04:06:58.700Z,15.95
2023-04-14T04:09:25.730Z,20.63
2023-04-14T04:11:57.230Z,21.95
2023-04-14T04:14:24.066Z,20.92
2023-04-14T04:16:51.349Z,21.17
2023-04-14T04:19:22.246Z,18.98
2023-04-14T04:21:51.528Z,15.73
2023-04-14T04:24:20.393Z,16.35
2023-04-14T04:26:47.064Z,18.65
2023-04-14T04:29:13.776Z,15.95
2023-04-14T04:31:40.576Z,15.57
2023-04-14T04:34:08.857Z,12.05
2023-04-14T04:36:35.951Z,13.77
2023-04-14T04:39:03.314Z,15.18
2023-04-14T04:41:30.794Z,12.02
2023-04-14T04:43:59.154Z,13.18
2023-04-14T04:46:44.588Z,14.32
2023-04-14T04:49:11.375Z,15.05
2023-04-14T04:51:38.412Z,12.43
2023-04-14T04:54:06.629Z,12.63
2023-04-14T04:56:33.720Z,13.40
2023-04-14T04:59:00.532Z,15.27
2023-04-14T05:01:27.591Z,12.20
2023-04-14T05:03:54.686Z,17.35
2023-04-14T05:06:21.883Z,11.27
2023-04-14T05:08:48.598Z,11.52
2023-04-14T05:11:15.626Z,13.55
2023-04-14T05:13:42.350Z,11.20
2023-04-14T05:16:10.147Z,10.73
2023-04-14T05:18:37.180Z,14.50
2023-04-14T05:21:05.299Z,15.80
2023-04-14T05:23:36.560Z,11.20
2023-04-14T05:26:27.118Z,10.98
2023-04-14T05:28:51.227Z,13.40
2023-04-14T05:31:18.066Z,17.23
2023-04-14T05:33:44.819Z,12.65
2023-04-14T05:36:11.625Z,9.60
2023-04-14T05:38:41.033Z,14.48
2023-04-14T05:41:07.867Z,12.63
2023-04-14T05:43:34.614Z,15.30
2023-04-14T05:46:01.799Z,10.95
2023-04-14T05:48:30.774Z,11.10
2023-04-14T05:50:58.316Z,13.13
2023-04-14T05:53:25.322Z,11.50
2023-04-14T05:55:52.642Z,11.73
2023-04-14T05:58:19.950Z,16.73
2023-04-14T06:00:47.151Z,14.80
2023-04-14T06:03:15.365Z,12.02
2023-04-14T06:05:42.403Z,11.13
2023-04-14T06:08:09.160Z,9.27
2023-04-14T06:10:35.969Z,18.02
2023-04-14T06:13:02.650Z,30.63
2023-04-14T06:15:29.892Z,23.38
2023-04-14T06:17:56.662Z,20.60
2023-04-14T06:20:23.432Z,19.25
2023-04-14T06:22:50.094Z,13.98
2023-04-14T06:25:16.904Z,10.15
2023-04-14T06:27:43.679Z,6.63
2023-04-14T06:30:10.758Z,6.32
2023-04-14T06:32:37.490Z,11.63
2023-04-14T06:35:05.182Z,23.38
2023-04-14T06:37:32.407Z,15.23
2023-04-14T06:39:59.195Z,13.45
2023-04-14T06:42:25.927Z,9.13
2023-04-14T06:44:52.572Z,9.98
2023-04-14T06:47:21.081Z,7.30
2023-04-14T06:49:47.946Z,6.75
2023-04-14T06:52:14.634Z,9.00
2023-04-14T06:54:42.357Z,7.07
2023-04-14T06:57:09.401Z,5.60
2023-04-14T06:59:36.778Z,9.48
2023-04-14T07:02:03.631Z,6.72
2023-04-14T07:04:30.725Z,5.03
2023-04-14T07:07:03.148Z,7.53
2023-04-14T07:09:29.881Z,11.65
2023-04-14T07:11:57.596Z,8.35
2023-04-14T07:14:24.796Z,9.25
2023-04-14T07:16:52.354Z,7.22
2023-04-14T07:19:19.542Z,7.55
2023-04-14T07:21:46.754Z,5.53
2023-04-14T07:24:15.336Z,7.80
2023-04-14T07:26:43.672Z,7.95
2023-04-14T07:29:10.464Z,11.73
2023-04-14T07:31:38.172Z,8.45
2023-04-14T07:34:05.229Z,8.38
2023-04-14T07:36:32.880Z,7.68
2023-04-14T07:38:59.730Z,9.48
2023-04-14T07:41:28.221Z,9.27
2023-04-14T07:43:55.837Z,4.60
2023-04-14T07:46:22.649Z,4.40
2023-04-14T07:48:49.606Z,8.75
2023-04-14T07:51:16.763Z,6.18
2023-04-14T07:53:45.143Z,5.47
2023-04-14T07:56:12.519Z,7.70
2023-04-14T07:58:39.233Z,7.63
2023-04-14T08:01:06.538Z,5.35
2023-04-14T08:03:33.888Z,8.82
2023-04-14T08:06:07.593Z,5.72
2023-04-14T08:08:35.400Z,7.90
2023-04-14T08:11:02.114Z,7.53
2023-04-14T08:13:28.932Z,4.97
2023-04-14T08:15:55.820Z,5.32
2023-04-14T08:18:22.776Z,5.90
2023-04-14T08:20:49.961Z,10.05
2023-04-14T08:23:17.243Z,11.57
2023-04-14T08:25:44.535Z,10.73
2023-04-14T08:28:11.455Z,10.63
2023-04-14T08:30:38.284Z,6.75
2023-04-14T08:33:05.052Z,11.35
2023-04-14T08:35:36.048Z,7.30
2023-04-14T08:38:08.285Z,7.65
2023-04-14T08:40:42.682Z,6.13
2023-04-14T08:43:11.754Z,5.45
2023-04-14T08:45:40.797Z,7.32
2023-04-14T08:48:07.508Z,10.00
2023-04-14T08:50:38.048Z,6.28
2023-04-14T08:53:06.838Z,4.28
2023-04-14T08:55:33.552Z,5.97
2023-04-14T08:58:02.059Z,4.03
2023-04-14T09:00:28.836Z,6.80
2023-04-14T09:02:55.697Z,3.83
2023-04-14T09:05:22.407Z,3.78
2023-04-14T09:07:49.183Z,6.57
2023-04-14T09:10:15.839Z,7.38
2023-04-14T09:12:42.501Z,4.32
2023-04-14T09:15:09.843Z,4.75
2023-04-14T09:17:36.912Z,5.65
2023-04-14T09:20:35.807Z,8.55
2023-04-14T09:22:51.087Z,10.07
2023-04-14T09:25:17.790Z,5.22
2023-04-14T09:27:44.442Z,6.07
2023-04-14T09:30:11.497Z,7.15
2023-04-14T09:32:38.630Z,7.72
2023-04-14T09:35:06.439Z,7.07
2023-04-14T09:37:49.686Z,4.65
2023-04-14T09:42:56.793Z,9.68
2023-04-14T09:45:31.294Z,7.22
2023-04-14T09:48:07.708Z,5.10
2023-04-14T09:51:03.494Z,5.38
2023-04-14T09:53:35.757Z,7.70
2023-04-14T09:56:06.020Z,5.97
2023-04-14T09:58:37.222Z,5.07
2023-04-14T10:01:14.593Z,5.18
2023-04-14T10:03:42.756Z,8.55
2023-04-14T10:06:11.540Z,6.95
2023-04-14T10:08:39.414Z,9.15
2023-04-14T10:11:29.726Z,6.40
2023-04-14T10:14:04.589Z,3.90
2023-04-14T10:16:31.727Z,6.72
2023-04-14T10:18:58.767Z,5.90
2023-04-14T10:21:26.208Z,9.18
2023-04-14T10:23:52.941Z,6.75
2023-04-14T10:26:19.853Z,6.00
2023-04-14T10:28:48.461Z,5.88
2023-04-14T10:31:20.356Z,7.93
2023-04-14T10:33:47.212Z,8.38
2023-04-14T10:36:31.995Z,8.23
2023-04-14T10:39:03.616Z,6.15
2023-04-14T10:41:50.179Z,5.55
2023-04-14T10:44:33.891Z,6.72
2023-04-14T10:47:05.381Z,6.45
2023-04-14T10:49:33.179Z,6.22
2023-04-14T10:52:25.246Z,5.90
2023-04-14T10:54:53.453Z,7.82
2023-04-14T10:57:26.825Z,8.65
2023-04-14T11:00:21.109Z,4.45
2023-04-14T11:03:13.113Z,7.72
2023-04-14T11:05:51.530Z,5.50
2023-04-14T11:08:47.393Z,8.07
2023-04-14T11:11:14.084Z,4.57
2023-04-14T11:13:40.825Z,7.18
2023-04-14T11:16:08.130Z,4.47
2023-04-14T11:18:45.345Z,6.88
2023-04-14T11:21:14.486Z,5.65
2023-04-14T11:23:41.648Z,6.80
2023-04-14T11:26:09.999Z,5.28
2023-04-14T11:28:39.013Z,5.50
2023-04-14T11:31:08.590Z,5.63
2023-04-14T11:33:39.998Z,3.60
2023-04-14T11:36:09.721Z,4.43
2023-04-14T11:38:40.329Z,5.82
2023-04-14T11:41:07.600Z,2.55
2023-04-14T11:43:34.651Z,5.50
2023-04-14T11:46:02.214Z,5.53
2023-04-14T11:48:29.876Z,3.83
2023-04-14T11:51:02.664Z,4.80
2023-04-14T11:53:29.648Z,6.80
2023-04-14T11:55:57.692Z,5.00
2023-04-14T11:58:25.655Z,6.53
2023-04-14T12:00:55.104Z,3.90
2023-04-14T12:03:23.528Z,5.30
2023-04-14T12:05:50.429Z,6.00
2023-04-14T12:08:17.522Z,3.88
2023-04-14T12:10:46.103Z,6.75
2023-04-14T12:13:13.155Z,5.85
2023-04-14T12:15:41.087Z,6.50
2023-04-14T12:18:13.930Z,4.97
2023-04-14T12:20:47.031Z,6.50
2023-04-14T12:25:40.587Z,3.90
2023-04-14T12:28:07.423Z,5.20
2023-04-14T12:30:37.837Z,3.25
2023-04-14T12:33:12.227Z,5.38
2023-04-14T12:35:39.494Z,3.45
2023-04-14T12:38:13.210Z,7.00
2023-04-14T12:40:41.297Z,5.78
2023-04-14T12:43:07.931Z,3.22
2023-04-14T12:45:48.586Z,4.78
2023-04-14T12:48:18.399Z,8.80
2023-04-14T12:50:45.180Z,5.30
2023-04-14T12:53:25.167Z,4.20
2023-04-14T12:56:11.688Z,7.18
2023-04-14T12:58:40.096Z,8.18
2023-04-14T13:01:08.483Z,5.32
2023-04-14T13:03:50.636Z,3.63
2023-04-14T13:06:23.179Z,6.65
2023-04-14T13:08:55.878Z,4.93
2023-04-14T13:11:24.228Z,5.07
2023-04-14T13:13:54.270Z,3.92
2023-04-14T13:16:22.543Z,5.47
2023-04-14T13:18:53.019Z,3.53
2023-04-14T13:21:19.867Z,3.45
2023-04-14T13:23:47.464Z,4.97
2023-04-14T13:26:17.309Z,2.63
2023-04-14T13:28:44.899Z,6.00
2023-04-14T13:31:14.644Z,4.68
2023-04-14T13:33:42.635Z,2.75
2023-04-14T13:36:09.708Z,5.30
2023-04-14T13:38:37.220Z,2.58
2023-04-14T13:41:06.472Z,2.08
2023-04-14T13:43:34.155Z,3.42
2023-04-14T13:46:01.305Z,3.78
2023-04-14T13:48:28.166Z,4.32
2023-04-14T13:50:56.030Z,3.03
2023-04-14T13:53:22.898Z,4.10
2023-04-14T13:55:49.647Z,2.90
2023-04-14T13:58:16.514Z,2.35
2023-04-14T14:00:43.387Z,2.13
2023-04-14T14:03:10.505Z,1.95
2023-04-14T14:05:37.568Z,1.50
2023-04-14T14:08:04.359Z,1.88
2023-04-14T14:10:31.307Z,5.57
2023-04-14T14:12:57.974Z,2.25
2023-04-14T14:15:24.834Z,4.50
2023-04-14T14:17:53.445Z,4.20
2023-04-14T14:20:20.406Z,2.72
2023-04-14T14:22:47.457Z,4.10
2023-04-14T14:25:20.312Z,5.00
2023-04-14T14:27:50.310Z,2.95
2023-04-14T14:30:17.152Z,1.80
2023-04-14T14:32:44.239Z,2.22
2023-04-14T14:35:11.184Z,3.17
2023-04-14T14:37:38.725Z,2.40
2023-04-14T14:40:06.656Z,2.92
2023-04-14T14:42:33.663Z,2.92
2023-04-14T14:45:01.362Z,2.72
2023-04-14T14:47:28.794Z,2.47
2023-04-14T14:50:01.665Z,2.22
2023-04-14T14:52:31.857Z,4.38
2023-04-14T14:54:58.917Z,3.42
2023-04-14T14:57:26.362Z,4.45
2023-04-14T14:59:54.015Z,3.30
2023-04-14T15:02:21.817Z,3.30
2023-04-14T15:04:50.288Z,2.47
2023-04-14T15:07:17.508Z,3.05
2023-04-14T15:09:46.774Z,2.50
2023-04-14T15:12:13.514Z,2.72
2023-04-14T15:14:40.285Z,2.92
2023-04-14T15:17:07.294Z,3.78
2023-04-14T15:19:34.184Z,3.13
2023-04-14T15:22:01.637Z,5.13
2023-04-14T15:24:28.484Z,4.20
2023-04-14T15:26:55.335Z,4.13
2023-04-14T15:29:25.051Z,2.85
2023-04-14T15:31:52.019Z,2.75
2023-04-14T15:34:21.589Z,2.50
2023-04-14T15:36:48.503Z,4.90
2023-04-14T15:39:15.430Z,3.63
2023-04-14T15:41:42.120Z,3.60
2023-04-14T15:44:10.329Z,2.33
2023-04-14T15:46:37.437Z,3.78
2023-04-14T15:49:04.900Z,3.03
2023-04-14T15:51:32.313Z,2.28
2023-04-14T15:53:59.729Z,3.08
2023-04-14T15:56:27.497Z,5.10
2023-04-14T15:58:54.963Z,2.47
2023-04-14T16:01:25.948Z,3.10
2023-04-14T16:03:53.398Z,4.78
2023-04-14T16:06:20.619Z,2.17
2023-04-14T16:08:47.765Z,3.33
2023-04-14T16:11:18.038Z,4.20
2023-04-14T16:13:48.462Z,3.30
2023-04-14T16:16:16.289Z,2.28
2023-04-14T16:18:43.288Z,2.45
2023-04-14T16:21:10.268Z,3.40
2023-04-14T16:23:37.384Z,2.35
2023-04-14T16:26:04.519Z,5.40
2023-04-14T16:28:31.711Z,5.45
2023-04-14T16:31:03.158Z,2.75
2023-04-14T16:33:31.933Z,4.47
2023-04-14T16:36:07.918Z,4.82
2023-04-14T16:38:34.933Z,4.90
2023-04-14T16:41:02.442Z,3.33
2023-04-14T16:43:29.610Z,2.60
2023-04-14T16:46:03.946Z,3.88
2023-04-14T16:48:31.514Z,2.95
2023-04-14T16:51:04.799Z,3.95
2023-04-14T16:53:32.049Z,3.10
2023-04-14T16:56:09.347Z,2.38
2023-04-14T16:58:38.284Z,3.75
2023-04-14T17:01:06.495Z,4.07
2023-04-14T17:03:34.651Z,3.78
2023-04-14T17:06:01.858Z,2.70
2023-04-14T17:08:29.150Z,2.42
2023-04-14T17:10:56.247Z,4.40
2023-04-14T17:13:23.611Z,2.50
2023-04-14T17:15:58.870Z,3.17
2023-04-14T17:18:35.621Z,3.53
2023-04-14T17:21:03.119Z,3.10
2023-04-14T17:23:30.619Z,6.82
2023-04-14T17:25:57.939Z,4.15
2023-04-14T17:28:27.257Z,1.42
2023-04-14T17:30:54.561Z,2.33
2023-04-14T17:33:22.408Z,2.70
2023-04-14T17:35:49.534Z,1.45
2023-04-14T17:38:17.015Z,2.03
2023-04-14T17:40:44.244Z,1.92
2023-04-14T17:43:11.152Z,2.20
2023-04-14T17:45:40.348Z,4.45
2023-04-14T17:48:11.200Z,2.20
2023-04-14T17:50:38.402Z,1.42
2023-04-14T17:53:05.547Z,3.00
2023-04-14T17:55:35.914Z,2.40
2023-04-14T17:58:03.928Z,3.65
2023-04-14T18:00:31.324Z,4.07
2023-04-14T18:02:58.599Z,5.75
2023-04-14T18:05:25.731Z,4.72
2023-04-14T18:07:53.398Z,6.15
2023-04-14T18:10:21.898Z,4.28
2023-04-14T18:12:49.618Z,2.20
2023-04-14T18:15:17.653Z,4.97
2023-04-14T18:17:47.209Z,5.45
2023-04-14T18:20:14.831Z,4.35
2023-04-14T18:22:43.398Z,1.92
2023-04-14T18:25:10.665Z,5.43
2023-04-14T18:30:09.230Z,3.90
2023-04-14T18:32:36.689Z,3.17
2023-04-14T18:35:04.138Z,3.03
2023-04-14T18:37:31.397Z,2.22
2023-04-14T18:39:58.648Z,3.58
2023-04-14T18:42:25.740Z,3.25
2023-04-14T18:44:55.308Z,4.13
2023-04-14T18:47:22.480Z,3.58
2023-04-14T18:49:52.403Z,4.18
2023-04-14T18:52:23.084Z,4.55
2023-04-14T18:54:50.670Z,5.18
2023-04-14T18:57:21.953Z,6.43
2023-04-14T18:59:49.751Z,4.55
2023-04-14T19:02:17.169Z,3.50
2023-04-14T19:04:45.038Z,4.95
2023-04-14T19:07:12.413Z,4.15
2023-04-14T19:09:39.579Z,5.90
2023-04-14T19:12:18.455Z,6.95
2023-04-14T19:14:54.486Z,4.13
2023-04-14T19:17:21.717Z,4.30
2023-04-14T19:19:49.411Z,3.28
2023-04-14T19:22:17.422Z,5.22
2023-04-14T19:24:48.391Z,4.85
2023-04-14T19:27:15.552Z,6.13
2023-04-14T19:29:43.359Z,5.55
2023-04-14T19:32:10.651Z,7.10
2023-04-14T19:34:38.032Z,5.82
2023-04-14T19:37:05.253Z,6.45
2023-04-14T19:39:32.445Z,3.13
2023-04-14T19:42:01.873Z,8.63
2023-04-14T19:44:31.058Z,4.07
2023-04-14T19:46:58.426Z,6.95
2023-04-14T19:49:25.560Z,5.68
2023-04-14T19:51:53.372Z,7.25
2023-04-14T19:54:23.603Z,3.88
2023-04-14T19:56:51.248Z,4.10
2023-04-14T19:59:38.878Z,5.50
2023-04-14T20:02:10.790Z,2.72
2023-04-14T20:04:38.433Z,4.55
2023-04-14T20:07:05.846Z,8.02
2023-04-14T20:09:33.156Z,3.13
2023-04-14T20:12:00.932Z,3.47
2023-04-14T20:14:28.337Z,3.47
2023-04-14T20:16:56.742Z,3.63
2023-04-14T20:19:24.799Z,4.95
2023-04-14T20:21:51.961Z,3.60
2023-04-14T20:24:19.164Z,4.57
2023-04-14T20:26:46.879Z,5.35
2023-04-14T20:29:14.435Z,6.63
2023-04-14T20:31:43.042Z,5.28
2023-04-14T20:34:10.774Z,5.80
2023-04-14T20:36:37.964Z,8.57
2023-04-14T20:39:06.129Z,8.15
2023-04-14T20:41:36.753Z,7.68
2023-04-14T20:44:06.673Z,9.43
2023-04-14T20:46:34.222Z,6.95
2023-04-14T20:49:02.951Z,9.00
2023-04-14T20:51:30.337Z,8.68
2023-04-14T20:53:57.585Z,5.60
2023-04-14T20:56:28.271Z,6.35
2023-04-14T20:58:56.388Z,7.13
2023-04-14T21:01:25.791Z,7.95
2023-04-14T21:03:53.228Z,6.63
2023-04-14T21:06:20.636Z,8.35
2023-04-14T21:08:48.040Z,9.57
2023-04-14T21:11:18.541Z,11.70
2023-04-14T21:15:26.763Z,8.07
2023-04-14T21:16:34.587Z,9.60
2023-04-14T21:19:02.889Z,6.00
2023-04-14T21:21:30.176Z,9.90
2023-04-14T21:23:57.362Z,8.02
2023-04-14T21:26:24.286Z,7.43
2023-04-14T21:28:51.596Z,7.32
2023-04-14T21:31:18.749Z,6.85
2023-04-14T21:33:47.150Z,7.55
2023-04-14T21:36:14.764Z,8.02
2023-04-14T21:38:41.833Z,7.53
2023-04-14T21:41:08.724Z,7.95
2023-04-14T21:43:36.161Z,9.90
2023-04-14T21:46:03.537Z,12.10
2023-04-14T21:48:30.240Z,11.43
2023-04-14T21:50:57.104Z,15.05
2023-04-14T21:53:23.768Z,14.98
2023-04-14T21:56:09.148Z,10.52
2023-04-14T21:58:37.319Z,10.27
2023-04-14T22:01:04.569Z,9.30
2023-04-14T22:03:32.707Z,9.10
2023-04-14T22:05:59.999Z,7.35
2023-04-14T22:08:26.727Z,7.93
2023-04-14T22:10:53.417Z,11.30
2023-04-14T22:13:20.152Z,11.15
2023-04-14T22:15:46.899Z,10.23
2023-04-14T22:18:13.552Z,9.15
2023-04-14T22:20:40.187Z,10.80
2023-04-14T22:23:07.394Z,7.75
2023-04-14T22:25:34.825Z,9.05
2023-04-14T22:28:01.848Z,9.05
2023-04-14T22:30:28.577Z,8.63
2023-04-14T22:32:56.071Z,8.32
2023-04-14T22:35:23.089Z,8.13
2023-04-14T22:37:49.836Z,8.20
2023-04-14T22:40:17.081Z,7.28
2023-04-14T22:42:43.699Z,7.90
2023-04-14T22:45:10.579Z,7.38
2023-04-14T22:47:37.351Z,7.47
2023-04-14T22:50:04.341Z,6.65
2023-04-14T22:52:31.137Z,6.30
2023-04-14T22:54:57.794Z,7.13
2023-04-14T22:57:24.656Z,6.68
2023-04-14T22:59:51.975Z,6.85
2023-04-14T23:02:18.843Z,5.72
2023-04-14T23:04:46.342Z,8.85
2023-04-14T23:07:13.648Z,5.65
2023-04-14T23:09:40.373Z,6.88
2023-04-14T23:12:07.248Z,8.50
2023-04-14T23:14:33.973Z,6.10
2023-04-14T23:17:01.021Z,6.93
2023-04-14T23:19:27.787Z,5.80
2023-04-14T23:21:54.510Z,8.50
2023-04-14T23:24:22.488Z,7.32
2023-04-14T23:26:49.191Z,5.68
2023-04-14T23:29:16.133Z,8.80
2023-04-14T23:31:43.076Z,8.27
2023-04-14T23:34:11.093Z,9.63
2023-04-14T23:36:37.846Z,6.30
2023-04-14T23:39:04.868Z,10.20
2023-04-14T23:41:31.669Z,8.00
2023-04-14T23:43:58.415Z,7.82
2023-04-14T23:46:25.073Z,8.77
2023-04-14T23:48:53.353Z,10.00
2023-04-14T23:51:22.453Z,6.50
2023-04-14T23:53:49.509Z,8.10
2023-04-14T23:56:16.506Z,7.75
2023-04-14T23:58:43.321Z,10.32
